createdAt,value
2022-08-14T00:02:27.153Z,23.01
2022-08-14T00:04:57.089Z,23.13
2022-08-14T00:07:25.318Z,22.93
2022-08-14T00:09:55.920Z,22.94
2022-08-14T00:12:47.989Z,22.99
2022-08-14T00:15:29.633Z,22.84
2022-08-14T00:17:58.632Z,22.81
2022-08-14T00:20:36.035Z,22.88
2022-08-14T00:23:17.035Z,22.76
2022-08-14T00:25:53.697Z,22.69
2022-08-14T00:28:29.149Z,22.51
2022-08-14T00:31:01.070Z,22.49
2022-08-14T00:33:50.737Z,22.51
2022-08-14T00:36:36.034Z,22.48
2022-08-14T00:39:09.341Z,22.34
2022-08-14T00:41:39.212Z,22.29
2022-08-14T00:44:07.215Z,22.28
2022-08-14T00:46:37.750Z,22.10
2022-08-14T00:49:08.066Z,22.31
2022-08-14T00:51:41.832Z,22.15
2022-08-14T00:54:20.879Z,22.19
2022-08-14T00:56:51.525Z,22.12
2022-08-14T00:59:25.926Z,21.98
2022-08-14T01:01:57.296Z,21.94
2022-08-14T01:04:37.780Z,21.90
2022-08-14T01:07:20.499Z,21.92
2022-08-14T01:09:50.653Z,21.88
2022-08-14T01:12:26.996Z,21.70
2022-08-14T01:14:59.061Z,21.53
2022-08-14T01:17:50.813Z,21.59
2022-08-14T01:20:39.726Z,21.48
2022-08-14T01:23:15.608Z,21.41
2022-08-14T01:25:46.075Z,21.42
2022-08-14T01:28:34.171Z,21.38
2022-08-14T01:31:05.815Z,21.25
2022-08-14T01:34:00.217Z,21.12
2022-08-14T01:36:23.681Z,21.23
2022-08-14T01:38:56.553Z,21.07
2022-08-14T01:41:29.788Z,20.97
2022-08-14T01:44:02.638Z,20.80
2022-08-14T01:46:36.691Z,20.90
2022-08-14T01:49:07.466Z,20.75
2022-08-14T01:51:37.004Z,20.69
2022-08-14T01:54:10.912Z,20.47
2022-08-14T01:56:44.462Z,20.37
2022-08-14T01:59:23.712Z,20.29
2022-08-14T02:01:59.447Z,20.22
2022-08-14T02:04:54.754Z,20.06
2022-08-14T02:07:34.514Z,19.89
2022-08-14T02:10:13.146Z,19.71
2022-08-14T02:12:44.264Z,19.57
2022-08-14T02:15:12.990Z,19.39
2022-08-14T02:17:43.548Z,19.31
2022-08-14T02:20:12.191Z,19.24
2022-08-14T02:22:43.903Z,19.14
2022-08-14T02:25:17.609Z,19.08
2022-08-14T02:28:25.799Z,19.03
2022-08-14T02:30:34.698Z,19.21
2022-08-14T02:33:07.300Z,19.15
2022-08-14T02:35:40.675Z,19.10
2022-08-14T02:38:11.807Z,19.02
2022-08-14T02:40:59.225Z,18.98
2022-08-14T02:43:36.572Z,18.95
2022-08-14T02:46:04.954Z,18.79
2022-08-14T02:49:04.320Z,18.62
2022-08-14T02:51:24.691Z,18.46
2022-08-14T02:53:58.990Z,18.38
2022-08-14T02:57:15.335Z,18.27
2022-08-14T02:59:18.511Z,18.14
2022-08-14T03:01:50.494Z,18.09
2022-08-14T03:04:23.350Z,18.26
2022-08-14T03:07:06.238Z,18.19
2022-08-14T03:10:24.441Z,18.25
2022-08-14T03:12:30.803Z,18.22
2022-08-14T03:15:03.082Z,18.24
2022-08-14T03:17:56.256Z,18.18
2022-08-14T03:20:22.446Z,18.03
2022-08-14T03:22:51.407Z,18.02
2022-08-14T03:25:21.666Z,17.97
2022-08-14T03:27:58.664Z,17.86
2022-08-14T03:30:39.137Z,17.77
2022-08-14T03:33:10.353Z,17.66
2022-08-14T03:36:05.264Z,17.60
2022-08-14T03:39:15.350Z,17.46
2022-08-14T03:41:18.911Z,17.29
2022-08-14T03:43:53.389Z,17.30
2022-08-14T03:46:53.060Z,17.26
2022-08-14T03:49:24.198Z,17.11
2022-08-14T03:51:57.440Z,17.00
2022-08-14T03:54:26.227Z,16.90
2022-08-14T03:56:54.877Z,16.76
2022-08-14T03:59:24.473Z,16.70
2022-08-14T04:02:02.005Z,16.69
2022-08-14T04:04:30.801Z,16.56
2022-08-14T04:07:00.723Z,16.62
2022-08-14T04:09:29.185Z,16.71
2022-08-14T04:11:58.149Z,16.62
2022-08-14T04:14:29.892Z,16.56
2022-08-14T04:16:57.967Z,16.50
2022-08-14T04:19:28.250Z,16.49
2022-08-14T04:22:03.764Z,16.48
2022-08-14T04:24:37.785Z,16.52
2022-08-14T04:27:07.288Z,16.59
2022-08-14T04:29:40.529Z,16.65
2022-08-14T04:32:57.683Z,16.70
2022-08-14T04:34:59.843Z,16.67
2022-08-14T04:37:45.774Z,16.69
2022-08-14T04:40:32.739Z,16.70
2022-08-14T04:43:21.025Z,16.84
2022-08-14T04:45:51.090Z,17.04
2022-08-14T04:48:39.365Z,17.06
2022-08-14T04:51:12.455Z,17.06
2022-08-14T04:53:44.677Z,17.08
2022-08-14T04:56:31.413Z,17.21
2022-08-14T04:59:09.498Z,17.24
2022-08-14T05:01:41.548Z,17.31
2022-08-14T05:04:15.996Z,17.44
2022-08-14T05:06:49.534Z,17.58
2022-08-14T05:09:22.196Z,17.73
2022-08-14T05:11:51.432Z,17.80
2022-08-14T05:14:45.499Z,17.83
2022-08-14T05:17:12.263Z,17.86
2022-08-14T05:19:45.039Z,17.95
2022-08-14T05:22:29.033Z,18.03
2022-08-14T05:24:57.546Z,18.11
2022-08-14T05:27:26.139Z,18.31
2022-08-14T05:29:59.198Z,18.44
2022-08-14T05:32:28.596Z,18.63
2022-08-14T05:34:59.076Z,18.82
2022-08-14T05:37:29.635Z,18.96
2022-08-14T05:40:00.613Z,19.09
2022-08-14T05:42:32.306Z,19.27
2022-08-14T05:45:05.093Z,19.40
2022-08-14T05:47:43.045Z,19.53
2022-08-14T05:50:18.511Z,19.69
2022-08-14T05:52:50.097Z,19.84
2022-08-14T05:55:22.155Z,19.97
2022-08-14T05:57:54.064Z,20.09
2022-08-14T06:00:28.542Z,20.26
2022-08-14T06:03:06.786Z,20.46
2022-08-14T06:05:38.685Z,20.64
2022-08-14T06:08:08.668Z,20.77
2022-08-14T06:10:50.683Z,20.95
2022-08-14T06:13:19.730Z,21.05
2022-08-14T06:15:49.118Z,21.19
2022-08-14T06:18:18.901Z,21.36
2022-08-14T06:20:47.213Z,21.61
2022-08-14T06:23:16.023Z,21.98
2022-08-14T06:25:53.475Z,22.30
2022-08-14T06:28:27.480Z,22.52
2022-08-14T06:30:57.025Z,22.68
2022-08-14T06:35:04.270Z,23.03
2022-08-14T06:36:18.550Z,23.46
2022-08-14T06:38:50.283Z,23.76
2022-08-14T06:41:20.765Z,23.92
2022-08-14T06:44:04.953Z,24.08
2022-08-14T06:46:38.102Z,24.17
2022-08-14T06:49:07.545Z,24.32
2022-08-14T06:51:38.745Z,24.23
2022-08-14T06:54:12.893Z,24.19
2022-08-14T06:56:44.279Z,24.17
2022-08-14T06:59:22.555Z,24.22
2022-08-14T07:02:13.274Z,24.35
2022-08-14T07:05:05.408Z,24.61
2022-08-14T07:07:39.303Z,25.19
2022-08-14T07:10:16.766Z,25.23
2022-08-14T07:13:01.196Z,25.63
2022-08-14T07:15:33.879Z,26.06
2022-08-14T07:18:03.515Z,26.24
2022-08-14T07:20:33.451Z,26.37
2022-08-14T07:23:08.063Z,26.40
2022-08-14T07:25:38.141Z,26.47
2022-08-14T07:28:20.717Z,26.43
2022-08-14T07:30:51.879Z,26.47
2022-08-14T07:33:24.726Z,26.84
2022-08-14T07:36:00.613Z,26.88
2022-08-14T07:38:36.340Z,26.86
2022-08-14T07:41:14.353Z,26.72
2022-08-14T07:43:47.646Z,27.12
2022-08-14T07:46:29.438Z,27.31
2022-08-14T07:48:59.296Z,27.47
2022-08-14T07:51:34.224Z,27.88
2022-08-14T07:54:09.804Z,28.58
2022-08-14T07:56:47.338Z,28.90
2022-08-14T07:59:18.245Z,28.69
2022-08-14T08:01:48.394Z,28.92
2022-08-14T08:04:26.943Z,29.26
2022-08-14T08:06:56.950Z,29.77
2022-08-14T08:09:31.980Z,29.70
2022-08-14T08:12:04.738Z,29.95
2022-08-14T08:14:55.674Z,29.66
2022-08-14T08:17:24.288Z,30.17
2022-08-14T08:19:52.538Z,30.24
2022-08-14T08:22:23.720Z,30.27
2022-08-14T08:24:55.428Z,30.36
2022-08-14T08:27:26.072Z,29.89
2022-08-14T08:30:04.928Z,30.56
2022-08-14T08:32:43.970Z,30.45
2022-08-14T08:35:18.690Z,30.27
2022-08-14T08:37:48.060Z,30.82
2022-08-14T08:40:31.451Z,31.19
2022-08-14T08:43:00.327Z,30.95
2022-08-14T08:45:29.551Z,31.04
2022-08-14T08:47:57.635Z,31.57
2022-08-14T08:53:03.249Z,31.45
2022-08-14T08:55:35.117Z,31.00
2022-08-14T08:58:12.696Z,31.27
2022-08-14T09:00:48.469Z,30.94
2022-08-14T09:03:20.565Z,31.78
2022-08-14T09:05:54.605Z,32.24
2022-08-14T09:08:31.678Z,31.52
2022-08-14T09:11:19.214Z,31.39
2022-08-14T09:13:50.954Z,31.14
2022-08-14T09:16:21.880Z,31.56
2022-08-14T09:18:53.487Z,31.72
2022-08-14T09:21:24.086Z,31.99
2022-08-14T09:24:28.442Z,32.16
2022-08-14T09:26:49.237Z,32.69
2022-08-14T09:29:20.012Z,33.02
2022-08-14T09:31:57.320Z,33.70
2022-08-14T09:34:58.529Z,33.11
2022-08-14T09:37:36.036Z,32.88
2022-08-14T09:40:16.616Z,33.33
2022-08-14T09:43:03.562Z,33.29
2022-08-14T09:45:39.678Z,33.35
2022-08-14T09:48:16.958Z,33.74
2022-08-14T09:50:50.511Z,34.28
2022-08-14T09:54:12.478Z,34.08
2022-08-14T09:56:24.433Z,33.67
2022-08-14T09:59:00.235Z,33.91
2022-08-14T10:01:37.662Z,33.02
2022-08-14T10:04:34.656Z,33.86
2022-08-14T10:07:05.902Z,34.06
2022-08-14T10:09:35.040Z,33.71
2022-08-14T10:12:06.784Z,34.06
2022-08-14T10:14:53.108Z,34.19
2022-08-14T10:20:44.970Z,35.06
2022-08-14T10:23:17.851Z,34.47
2022-08-14T10:25:50.989Z,33.91
2022-08-14T10:29:03.479Z,34.88
2022-08-14T10:31:20.171Z,34.74
2022-08-14T10:34:02.857Z,34.10
2022-08-14T10:36:40.698Z,34.56
2022-08-14T10:39:18.235Z,32.96
2022-08-14T10:41:49.324Z,32.24
2022-08-14T10:44:24.945Z,32.59
2022-08-14T10:47:40.063Z,33.31
2022-08-14T10:49:57.115Z,34.24
2022-08-14T10:52:29.742Z,34.58
2022-08-14T10:55:08.161Z,35.08
2022-08-14T10:57:47.757Z,34.87
2022-08-14T11:00:29.781Z,35.84
2022-08-14T11:03:09.280Z,36.26
2022-08-14T11:05:43.112Z,36.08
2022-08-14T11:08:15.320Z,36.01
2022-08-14T11:10:46.650Z,36.42
2022-08-14T11:13:21.175Z,36.76
2022-08-14T11:15:52.815Z,37.00
2022-08-14T11:18:23.550Z,37.64
2022-08-14T11:21:02.192Z,36.93
2022-08-14T11:23:38.515Z,36.15
2022-08-14T11:26:10.452Z,35.38
2022-08-14T11:28:47.949Z,36.53
2022-08-14T11:31:20.606Z,36.77
2022-08-14T11:33:58.172Z,36.73
2022-08-14T11:36:57.190Z,36.78
2022-08-14T11:39:23.108Z,37.34
2022-08-14T11:42:57.236Z,37.96
2022-08-14T11:44:56.772Z,39.14
2022-08-14T11:47:35.174Z,38.46
2022-08-14T11:50:33.473Z,37.21
2022-08-14T11:53:04.513Z,36.36
2022-08-14T11:55:38.829Z,36.70
2022-08-14T11:58:10.359Z,37.44
2022-08-14T12:00:49.685Z,38.00
2022-08-14T12:03:37.750Z,37.80
2022-08-14T12:06:28.744Z,36.17
2022-08-14T12:09:00.277Z,35.81
2022-08-14T12:11:43.336Z,36.19
2022-08-14T12:14:30.188Z,37.42
2022-08-14T12:17:04.997Z,37.64
2022-08-14T12:19:45.444Z,37.09
2022-08-14T12:22:25.865Z,36.93
2022-08-14T12:24:58.490Z,36.18
2022-08-14T12:27:41.456Z,36.04
2022-08-14T12:30:11.360Z,35.95
2022-08-14T12:32:41.741Z,36.89
2022-08-14T12:35:10.927Z,37.57
2022-08-14T12:37:40.842Z,36.85
2022-08-14T12:40:11.327Z,36.51
2022-08-14T12:42:44.780Z,36.19
2022-08-14T12:45:33.105Z,36.68
2022-08-14T12:48:21.308Z,35.74
2022-08-14T12:50:52.307Z,35.53
2022-08-14T12:53:22.219Z,36.14
2022-08-14T12:56:21.790Z,36.18
2022-08-14T12:58:58.167Z,35.51
2022-08-14T13:01:28.964Z,35.28
2022-08-14T13:04:07.707Z,35.24
2022-08-14T13:06:40.728Z,35.24
2022-08-14T13:09:11.214Z,35.53
2022-08-14T13:11:45.079Z,36.14
2022-08-14T13:14:17.910Z,36.97
2022-08-14T13:16:50.535Z,37.54
2022-08-14T13:19:19.895Z,37.61
2022-08-14T13:21:58.575Z,37.41
2022-08-14T13:24:39.791Z,37.48
2022-08-14T13:27:11.059Z,36.93
2022-08-14T13:29:46.680Z,37.74
2022-08-14T13:32:16.068Z,36.65
2022-08-14T13:34:46.221Z,36.05
2022-08-14T13:37:18.504Z,36.78
2022-08-14T13:39:56.981Z,36.46
2022-08-14T13:42:27.734Z,36.39
2022-08-14T13:45:02.504Z,36.81
2022-08-14T13:47:33.093Z,37.09
2022-08-14T13:50:04.661Z,35.96
2022-08-14T13:52:59.328Z,35.15
2022-08-14T13:55:29.593Z,36.19
2022-08-14T13:58:04.205Z,35.83
2022-08-14T14:00:53.356Z,34.89
2022-08-14T14:03:25.922Z,35.42
2022-08-14T14:05:59.731Z,35.14
2022-08-14T14:08:45.816Z,34.92
2022-08-14T14:11:17.988Z,35.13
2022-08-14T14:13:48.216Z,36.04
2022-08-14T14:16:26.255Z,36.91
2022-08-14T14:19:08.822Z,37.80
2022-08-14T14:21:40.397Z,37.18
2022-08-14T14:24:14.830Z,37.75
2022-08-14T14:26:47.094Z,36.91
2022-08-14T14:29:16.894Z,36.53
2022-08-14T14:31:49.141Z,37.02
2022-08-14T14:34:29.531Z,35.06
2022-08-14T14:37:02.674Z,34.97
2022-08-14T14:39:37.691Z,34.47
2022-08-14T14:42:09.435Z,33.70
2022-08-14T14:44:42.863Z,33.84
2022-08-14T14:47:15.443Z,34.60
2022-08-14T14:49:54.610Z,35.41
2022-08-14T14:52:26.777Z,35.15
2022-08-14T14:55:07.504Z,34.98
2022-08-14T14:57:40.171Z,35.54
2022-08-14T15:00:12.823Z,35.77
2022-08-14T15:02:44.919Z,35.39
2022-08-14T15:05:15.999Z,35.46
2022-08-14T15:07:45.729Z,35.47
2022-08-14T15:10:28.102Z,35.45
2022-08-14T15:13:04.075Z,35.51
2022-08-14T15:15:33.290Z,35.66
2022-08-14T15:18:14.843Z,35.38
2022-08-14T15:21:02.480Z,35.44
2022-08-14T15:23:32.431Z,35.63
2022-08-14T15:26:23.929Z,35.55
2022-08-14T15:29:03.273Z,34.73
2022-08-14T15:31:35.012Z,35.30
2022-08-14T15:34:43.538Z,35.16
2022-08-14T15:37:05.333Z,35.33
2022-08-14T15:39:38.064Z,34.98
2022-08-14T15:42:14.510Z,34.58
2022-08-14T15:44:57.985Z,34.59
2022-08-14T15:47:34.837Z,34.28
2022-08-14T15:50:09.627Z,34.28
2022-08-14T15:52:44.810Z,34.14
2022-08-14T15:55:15.585Z,34.20
2022-08-14T15:57:51.307Z,34.15
2022-08-14T16:00:43.307Z,33.95
2022-08-14T16:03:27.333Z,33.93
2022-08-14T16:06:11.188Z,33.65
2022-08-14T16:08:44.730Z,33.72
2022-08-14T16:11:13.760Z,33.88
2022-08-14T16:13:44.530Z,33.95
2022-08-14T16:16:34.627Z,33.97
2022-08-14T16:19:10.497Z,33.53
2022-08-14T16:22:01.822Z,33.50
2022-08-14T16:25:02.153Z,33.11
2022-08-14T16:27:39.244Z,33.04
2022-08-14T16:30:21.023Z,33.18
2022-08-14T16:32:55.803Z,33.28
2022-08-14T16:35:42.847Z,33.10
2022-08-14T16:38:35.747Z,32.90
2022-08-14T16:41:23.094Z,33.00
2022-08-14T16:43:59.431Z,33.11
2022-08-14T16:46:31.543Z,32.88
2022-08-14T16:49:01.478Z,32.82
2022-08-14T16:51:30.963Z,32.89
2022-08-14T16:54:20.899Z,32.83
2022-08-14T16:56:56.287Z,32.59
2022-08-14T16:59:30.492Z,32.50
2022-08-14T17:02:13.095Z,32.32
2022-08-14T17:04:49.157Z,32.18
2022-08-14T17:07:17.555Z,32.20
2022-08-14T17:09:48.530Z,31.99
2022-08-14T17:12:33.536Z,31.77
2022-08-14T17:15:10.825Z,31.62
2022-08-14T17:17:49.898Z,31.43
2022-08-14T17:20:53.901Z,31.44
2022-08-14T17:23:13.612Z,31.24
2022-08-14T17:25:50.885Z,31.14
2022-08-14T17:28:51.329Z,31.02
2022-08-14T17:31:09.808Z,30.96
2022-08-14T17:33:44.591Z,31.01
2022-08-14T17:36:22.943Z,31.00
2022-08-14T17:39:06.346Z,30.90
2022-08-14T17:41:43.452Z,30.82
2022-08-14T17:44:34.038Z,30.63
2022-08-14T17:47:14.731Z,30.59
2022-08-14T17:49:51.820Z,30.53
2022-08-14T17:52:34.165Z,30.38
2022-08-14T17:55:04.146Z,30.22
2022-08-14T17:57:41.038Z,30.17
2022-08-14T18:00:12.890Z,30.11
2022-08-14T18:02:50.746Z,30.06
2022-08-14T18:05:23.440Z,29.90
2022-08-14T18:08:31.951Z,29.61
2022-08-14T18:10:58.156Z,29.36
2022-08-14T18:13:50.874Z,29.27
2022-08-14T18:16:19.723Z,29.03
2022-08-14T18:18:49.731Z,28.82
2022-08-14T18:21:23.943Z,28.66
2022-08-14T18:23:53.483Z,28.43
2022-08-14T18:26:36.952Z,28.23
2022-08-14T18:29:14.995Z,27.99
2022-08-14T18:31:45.443Z,27.76
2022-08-14T18:34:32.117Z,27.53
2022-08-14T18:37:17.657Z,27.32
2022-08-14T18:40:02.377Z,27.06
2022-08-14T18:42:44.660Z,26.86
2022-08-14T18:45:18.651Z,26.71
2022-08-14T18:48:14.238Z,26.54
2022-08-14T18:51:00.764Z,26.35
2022-08-14T18:53:34.394Z,26.16
2022-08-14T18:56:09.642Z,26.00
2022-08-14T18:58:48.822Z,25.81
2022-08-14T19:01:30.287Z,25.73
2022-08-14T19:04:02.738Z,25.65
2022-08-14T19:06:41.198Z,25.64
2022-08-14T19:09:09.618Z,25.50
2022-08-14T19:11:50.494Z,25.33
2022-08-14T19:14:46.783Z,25.13
2022-08-14T19:17:43.158Z,25.11
2022-08-14T19:20:46.649Z,25.01
2022-08-14T19:23:18.458Z,24.95
2022-08-14T19:26:01.193Z,24.83
2022-08-14T19:28:32.150Z,24.74
2022-08-14T19:31:42.038Z,24.62
2022-08-14T19:34:30.101Z,24.54
2022-08-14T19:37:09.897Z,24.41
2022-08-14T19:39:53.527Z,24.30
2022-08-14T19:42:28.148Z,24.18
2022-08-14T19:44:59.013Z,24.12
2022-08-14T19:47:38.683Z,24.08
2022-08-14T19:50:37.935Z,24.03
2022-08-14T19:53:05.009Z,23.92
2022-08-14T19:55:45.453Z,23.92
2022-08-14T19:58:14.133Z,23.86
2022-08-14T20:00:52.828Z,23.84
2022-08-14T20:03:23.303Z,23.82
2022-08-14T20:06:05.351Z,23.87
2022-08-14T20:09:05.904Z,23.79
2022-08-14T20:12:01.098Z,23.71
2022-08-14T20:14:20.413Z,23.58
2022-08-14T20:16:54.348Z,23.56
2022-08-14T20:19:24.994Z,23.50
2022-08-14T20:22:35.085Z,23.58
2022-08-14T20:24:50.048Z,23.61
2022-08-14T20:27:33.928Z,23.49
2022-08-14T20:30:33.173Z,23.32
2022-08-14T20:33:04.520Z,23.38
2022-08-14T20:35:41.967Z,23.46
2022-08-14T20:38:30.694Z,23.37
2022-08-14T20:41:01.496Z,23.27
2022-08-14T20:43:54.347Z,23.17
2022-08-14T20:46:29.849Z,23.06
2022-08-14T20:48:59.935Z,23.05
2022-08-14T20:51:36.742Z,23.24
2022-08-14T20:54:08.967Z,23.19
2022-08-14T20:56:40.683Z,23.15
2022-08-14T20:59:17.496Z,23.13
2022-08-14T21:01:51.922Z,23.05
2022-08-14T21:04:28.039Z,23.04
2022-08-14T21:07:25.876Z,22.96
2022-08-14T21:10:06.018Z,23.01
2022-08-14T21:12:37.159Z,23.06
2022-08-14T21:15:25.600Z,23.06
2022-08-14T21:17:56.273Z,23.21
2022-08-14T21:20:28.796Z,23.20
2022-08-14T21:23:00.577Z,23.10
2022-08-14T21:25:31.891Z,23.04
2022-08-14T21:28:02.872Z,22.93
2022-08-14T21:30:46.674Z,22.85
2022-08-14T21:33:21.634Z,22.83
2022-08-14T21:35:55.528Z,22.81
2022-08-14T21:38:31.201Z,22.76
2022-08-14T21:41:42.582Z,22.76
2022-08-14T21:44:17.859Z,22.71
2022-08-14T21:46:51.196Z,22.64
2022-08-14T21:49:37.514Z,22.57
2022-08-14T21:52:49.064Z,22.52
2022-08-14T21:55:09.142Z,22.51
2022-08-14T21:57:56.777Z,22.53
2022-08-14T22:00:42.053Z,22.58
2022-08-14T22:03:17.127Z,22.49
2022-08-14T22:05:49.708Z,22.44
2022-08-14T22:08:19.390Z,22.40
2022-08-14T22:10:51.466Z,22.37
2022-08-14T22:13:24.530Z,22.36
2022-08-14T22:15:59.660Z,22.35
2022-08-14T22:18:29.774Z,22.39
2022-08-14T22:20:59.506Z,22.38
2022-08-14T22:23:27.564Z,22.38
2022-08-14T22:25:56.075Z,22.33
2022-08-14T22:28:32.825Z,22.40
2022-08-14T22:31:03.768Z,22.40
2022-08-14T22:33:40.308Z,22.35
2022-08-14T22:36:33.830Z,22.32
2022-08-14T22:39:10.829Z,22.30
2022-08-14T22:41:42.457Z,22.30
2022-08-14T22:44:14.307Z,22.29
2022-08-14T22:46:45.133Z,22.30
2022-08-14T22:49:16.443Z,22.40
2022-08-14T22:52:32.089Z,22.41
2022-08-14T22:54:56.178Z,22.44
2022-08-14T22:57:41.990Z,22.44
2022-08-14T23:00:16.417Z,22.45
2022-08-14T23:02:46.657Z,22.43
2022-08-14T23:05:15.529Z,22.44
2022-08-14T23:08:59.027Z,22.46
2022-08-14T23:10:34.841Z,22.57
2022-08-14T23:13:05.194Z,22.57
2022-08-14T23:15:35.041Z,22.57
2022-08-14T23:18:05.716Z,22.60
2022-08-14T23:20:36.164Z,22.64
2022-08-14T23:23:12.760Z,22.65
2022-08-14T23:25:57.871Z,22.68
2022-08-14T23:28:34.191Z,22.75
2022-08-14T23:31:33.592Z,22.72
2022-08-14T23:34:08.219Z,22.72
2022-08-14T23:36:54.589Z,22.72
2022-08-14T23:39:30.082Z,22.80
2022-08-14T23:42:02.336Z,22.79
2022-08-14T23:44:35.066Z,22.84
2022-08-14T23:47:11.598Z,22.90
2022-08-14T23:50:00.016Z,22.93
2022-08-14T23:52:55.720Z,22.91
2022-08-14T23:55:18.620Z,22.86
2022-08-14T23:57:57.905Z,22.84
